sensor_id;sensor_type;location;lat;lon;timestamp;P1;durP1;ratioP1;P2;durP2;ratioP2
71856;SDS011;63344;46.980;28.882;2023-02-03T00:00:58;71.68;;;30.42;;
71856;SDS011;63344;46.980;28.882;2023-02-03T00:03:31;80.55;;;35.55;;
71856;SDS011;63344;46.980;28.882;2023-02-03T00:06:02;75.35;;;33.65;;
71856;SDS011;63344;46.980;28.882;2023-02-03T00:08:30;59.63;;;24.83;;
71856;SDS011;63344;46.980;28.882;2023-02-03T00:10:58;68.97;;;32.67;;
71856;SDS011;63344;46.980;28.882;2023-02-03T00:13:25;81.40;;;34.35;;
71856;SDS011;63344;46.980;28.882;2023-02-03T00:15:53;91.72;;;39.15;;
71856;SDS011;63344;46.980;28.882;2023-02-03T00:18:20;65.53;;;30.00;;
71856;SDS011;63344;46.980;28.882;2023-02-03T00:20:48;56.80;;;25.88;;
71856;SDS011;63344;46.980;28.882;2023-02-03T00:23:16;69.57;;;30.02;;
71856;SDS011;63344;46.980;28.882;2023-02-03T00:25:46;62.80;;;28.85;;
71856;SDS011;63344;46.980;28.882;2023-02-03T00:28:14;78.32;;;33.58;;
71856;SDS011;63344;46.980;28.882;2023-02-03T00:30:54;61.20;;;26.67;;
71856;SDS011;63344;46.980;28.882;2023-02-03T00:33:21;68.72;;;30.95;;
71856;SDS011;63344;46.980;28.882;2023-02-03T00:35:48;74.38;;;31.23;;
71856;SDS011;63344;46.980;28.882;2023-02-03T00:38:15;66.07;;;28.13;;
71856;SDS011;63344;46.980;28.882;2023-02-03T00:40:50;82.13;;;36.00;;
71856;SDS011;63344;46.980;28.882;2023-02-03T00:43:19;78.70;;;32.95;;
71856;SDS011;63344;46.980;28.882;2023-02-03T00:45:49;75.88;;;34.10;;
71856;SDS011;63344;46.980;28.882;2023-02-03T00:48:16;86.18;;;36.15;;
71856;SDS011;63344;46.980;28.882;2023-02-03T00:50:47;65.28;;;30.42;;
71856;SDS011;63344;46.980;28.882;2023-02-03T00:53:15;88.07;;;39.28;;
71856;SDS011;63344;46.980;28.882;2023-02-03T00:55:43;83.30;;;36.25;;
71856;SDS011;63344;46.980;28.882;2023-02-03T00:58:10;64.43;;;28.83;;
71856;SDS011;63344;46.980;28.882;2023-02-03T01:00:37;52.55;;;23.05;;
71856;SDS011;63344;46.980;28.882;2023-02-03T01:03:04;60.67;;;25.75;;
71856;SDS011;63344;46.980;28.882;2023-02-03T01:05:32;90.32;;;36.85;;
71856;SDS011;63344;46.980;28.882;2023-02-03T01:08:04;52.20;;;24.65;;
71856;SDS011;63344;46.980;28.882;2023-02-03T01:10:31;46.17;;;22.95;;
71856;SDS011;63344;46.980;28.882;2023-02-03T01:12:59;57.95;;;26.95;;
71856;SDS011;63344;46.980;28.882;2023-02-03T01:15:27;62.70;;;29.08;;
71856;SDS011;63344;46.980;28.882;2023-02-03T01:17:54;53.63;;;26.48;;
71856;SDS011;63344;46.980;28.882;2023-02-03T01:20:21;68.25;;;30.27;;
71856;SDS011;63344;46.980;28.882;2023-02-03T01:22:50;58.85;;;28.00;;
71856;SDS011;63344;46.980;28.882;2023-02-03T01:25:17;57.22;;;25.75;;
71856;SDS011;63344;46.980;28.882;2023-02-03T01:27:45;47.45;;;21.58;;
71856;SDS011;63344;46.980;28.882;2023-02-03T01:30:13;49.63;;;23.60;;
71856;SDS011;63344;46.980;28.882;2023-02-03T01:32:40;69.05;;;30.30;;
71856;SDS011;63344;46.980;28.882;2023-02-03T01:35:08;63.22;;;28.77;;
71856;SDS011;63344;46.980;28.882;2023-02-03T01:37:35;43.67;;;20.65;;
71856;SDS011;63344;46.980;28.882;2023-02-03T01:40:04;51.85;;;23.42;;
71856;SDS011;63344;46.980;28.882;2023-02-03T01:42:32;39.22;;;20.00;;
71856;SDS011;63344;46.980;28.882;2023-02-03T01:45:00;47.25;;;21.90;;
71856;SDS011;63344;46.980;28.882;2023-02-03T01:50:35;66.72;;;30.48;;
71856;SDS011;63344;46.980;28.882;2023-02-03T01:53:04;60.08;;;26.15;;
71856;SDS011;63344;46.980;28.882;2023-02-03T01:55:37;56.75;;;27.00;;
71856;SDS011;63344;46.980;28.882;2023-02-03T01:58:13;65.85;;;30.10;;
71856;SDS011;63344;46.980;28.882;2023-02-03T02:00:46;75.88;;;32.20;;
71856;SDS011;63344;46.980;28.882;2023-02-03T02:03:15;66.93;;;31.27;;
71856;SDS011;63344;46.980;28.882;2023-02-03T02:05:52;76.57;;;34.75;;
71856;SDS011;63344;46.980;28.882;2023-02-03T02:08:24;67.80;;;31.88;;
71856;SDS011;63344;46.980;28.882;2023-02-03T02:10:52;90.72;;;38.80;;
71856;SDS011;63344;46.980;28.882;2023-02-03T02:13:19;80.55;;;38.28;;
71856;SDS011;63344;46.980;28.882;2023-02-03T02:30:35;99.07;;;41.28;;
71856;SDS011;63344;46.980;28.882;2023-02-03T02:35:49;90.28;;;42.70;;
71856;SDS011;63344;46.980;28.882;2023-02-03T02:38:39;87.45;;;38.97;;
71856;SDS011;63344;46.980;28.882;2023-02-03T02:47:04;86.85;;;37.88;;
71856;SDS011;63344;46.980;28.882;2023-02-03T02:49:38;77.55;;;34.88;;
71856;SDS011;63344;46.980;28.882;2023-02-03T02:52:13;78.07;;;37.10;;
71856;SDS011;63344;46.980;28.882;2023-02-03T02:54:46;76.95;;;35.25;;
71856;SDS011;63344;46.980;28.882;2023-02-03T02:57:17;80.45;;;35.83;;
71856;SDS011;63344;46.980;28.882;2023-02-03T02:59:47;94.43;;;41.38;;
71856;SDS011;63344;46.980;28.882;2023-02-03T03:02:15;87.60;;;38.95;;
71856;SDS011;63344;46.980;28.882;2023-02-03T03:04:43;79.35;;;37.80;;
71856;SDS011;63344;46.980;28.882;2023-02-03T03:07:18;76.88;;;36.88;;
71856;SDS011;63344;46.980;28.882;2023-02-03T03:09:51;82.30;;;39.40;;
71856;SDS011;63344;46.980;28.882;2023-02-03T03:12:29;90.40;;;38.33;;
71856;SDS011;63344;46.980;28.882;2023-02-03T03:15:05;88.13;;;38.33;;
71856;SDS011;63344;46.980;28.882;2023-02-03T03:17:40;73.95;;;33.08;;
71856;SDS011;63344;46.980;28.882;2023-02-03T03:20:15;91.68;;;44.08;;
71856;SDS011;63344;46.980;28.882;2023-02-03T03:22:48;98.72;;;41.58;;
71856;SDS011;63344;46.980;28.882;2023-02-03T03:25:23;82.07;;;34.30;;
71856;SDS011;63344;46.980;28.882;2023-02-03T03:27:58;86.25;;;40.72;;
71856;SDS011;63344;46.980;28.882;2023-02-03T03:30:31;80.68;;;34.83;;
71856;SDS011;63344;46.980;28.882;2023-02-03T03:33:00;87.88;;;39.42;;
71856;SDS011;63344;46.980;28.882;2023-02-03T03:35:33;91.97;;;44.53;;
71856;SDS011;63344;46.980;28.882;2023-02-03T03:38:22;94.30;;;42.78;;
71856;SDS011;63344;46.980;28.882;2023-02-03T03:41:01;81.38;;;38.13;;
71856;SDS011;63344;46.980;28.882;2023-02-03T03:43:46;87.75;;;39.58;;
71856;SDS011;63344;46.980;28.882;2023-02-03T03:46:20;94.40;;;41.95;;
71856;SDS011;63344;46.980;28.882;2023-02-03T03:48:58;91.72;;;41.78;;
71856;SDS011;63344;46.980;28.882;2023-02-03T03:51:47;85.38;;;39.80;;
71856;SDS011;63344;46.980;28.882;2023-02-03T03:54:18;91.20;;;42.55;;
71856;SDS011;63344;46.980;28.882;2023-02-03T03:57:04;92.32;;;42.38;;
71856;SDS011;63344;46.980;28.882;2023-02-03T03:59:47;80.45;;;38.35;;
71856;SDS011;63344;46.980;28.882;2023-02-03T04:02:16;97.57;;;45.13;;
71856;SDS011;63344;46.980;28.882;2023-02-03T04:04:44;88.22;;;40.92;;
71856;SDS011;63344;46.980;28.882;2023-02-03T04:07:14;89.28;;;40.10;;
71856;SDS011;63344;46.980;28.882;2023-02-03T04:09:44;81.70;;;39.85;;
71856;SDS011;63344;46.980;28.882;2023-02-03T04:12:20;95.85;;;43.72;;
71856;SDS011;63344;46.980;28.882;2023-02-03T04:14:49;88.20;;;42.90;;
71856;SDS011;63344;46.980;28.882;2023-02-03T04:17:17;95.68;;;43.80;;
71856;SDS011;63344;46.980;28.882;2023-02-03T04:19:48;87.40;;;40.65;;
71856;SDS011;63344;46.980;28.882;2023-02-03T04:22:17;85.90;;;41.22;;
71856;SDS011;63344;46.980;28.882;2023-02-03T04:24:44;78.80;;;39.85;;
71856;SDS011;63344;46.980;28.882;2023-02-03T04:27:13;85.65;;;37.22;;
71856;SDS011;63344;46.980;28.882;2023-02-03T04:29:40;85.38;;;40.67;;
71856;SDS011;63344;46.980;28.882;2023-02-03T04:32:14;88.25;;;41.10;;
71856;SDS011;63344;46.980;28.882;2023-02-03T04:34:42;77.85;;;36.95;;
71856;SDS011;63344;46.980;28.882;2023-02-03T04:37:10;75.00;;;34.38;;
71856;SDS011;63344;46.980;28.882;2023-02-03T04:39:37;78.30;;;38.10;;
71856;SDS011;63344;46.980;28.882;2023-02-03T04:42:04;74.45;;;37.15;;
71856;SDS011;63344;46.980;28.882;2023-02-03T04:44:32;78.30;;;37.15;;
71856;SDS011;63344;46.980;28.882;2023-02-03T04:46:59;69.97;;;37.33;;
71856;SDS011;63344;46.980;28.882;2023-02-03T04:49:28;84.72;;;39.35;;
71856;SDS011;63344;46.980;28.882;2023-02-03T04:51:56;76.95;;;36.00;;
71856;SDS011;63344;46.980;28.882;2023-02-03T04:54:23;79.57;;;38.05;;
71856;SDS011;63344;46.980;28.882;2023-02-03T04:56:51;81.03;;;39.35;;
71856;SDS011;63344;46.980;28.882;2023-02-03T04:59:18;72.25;;;35.88;;
71856;SDS011;63344;46.980;28.882;2023-02-03T05:01:46;85.85;;;42.53;;
71856;SDS011;63344;46.980;28.882;2023-02-03T05:04:27;87.80;;;40.67;;
71856;SDS011;63344;46.980;28.882;2023-02-03T05:09:36;79.95;;;36.90;;
71856;SDS011;63344;46.980;28.882;2023-02-03T05:12:08;80.55;;;39.20;;
71856;SDS011;63344;46.980;28.882;2023-02-03T05:14:50;88.15;;;41.20;;
71856;SDS011;63344;46.980;28.882;2023-02-03T05:17:19;81.93;;;40.58;;
71856;SDS011;63344;46.980;28.882;2023-02-03T05:19:47;88.03;;;42.58;;
71856;SDS011;63344;46.980;28.882;2023-02-03T05:22:15;80.03;;;35.80;;
71856;SDS011;63344;46.980;28.882;2023-02-03T05:24:42;86.43;;;42.05;;
71856;SDS011;63344;46.980;28.882;2023-02-03T05:27:14;70.45;;;35.80;;
71856;SDS011;63344;46.980;28.882;2023-02-03T05:29:42;88.70;;;43.22;;
71856;SDS011;63344;46.980;28.882;2023-02-03T05:32:09;99.68;;;46.50;;
71856;SDS011;63344;46.980;28.882;2023-02-03T05:34:36;71.85;;;36.85;;
71856;SDS011;63344;46.980;28.882;2023-02-03T05:37:10;74.95;;;39.05;;
71856;SDS011;63344;46.980;28.882;2023-02-03T05:39:37;57.65;;;29.35;;
71856;SDS011;63344;46.980;28.882;2023-02-03T05:42:08;63.28;;;32.72;;
71856;SDS011;63344;46.980;28.882;2023-02-03T05:44:35;75.68;;;38.30;;
71856;SDS011;63344;46.980;28.882;2023-02-03T05:47:11;62.60;;;30.35;;
71856;SDS011;63344;46.980;28.882;2023-02-03T05:49:59;71.90;;;34.03;;
71856;SDS011;63344;46.980;28.882;2023-02-03T05:52:26;76.75;;;37.95;;
71856;SDS011;63344;46.980;28.882;2023-02-03T05:54:55;69.63;;;33.15;;
71856;SDS011;63344;46.980;28.882;2023-02-03T05:57:22;87.70;;;41.17;;
71856;SDS011;63344;46.980;28.882;2023-02-03T05:59:49;77.15;;;40.33;;
71856;SDS011;63344;46.980;28.882;2023-02-03T06:02:17;65.85;;;34.90;;
71856;SDS011;63344;46.980;28.882;2023-02-03T06:04:44;73.47;;;33.42;;
71856;SDS011;63344;46.980;28.882;2023-02-03T06:07:14;86.50;;;40.78;;
71856;SDS011;63344;46.980;28.882;2023-02-03T06:09:42;79.80;;;39.55;;
71856;SDS011;63344;46.980;28.882;2023-02-03T06:12:10;57.20;;;27.88;;
71856;SDS011;63344;46.980;28.882;2023-02-03T06:14:47;38.75;;;19.33;;
71856;SDS011;63344;46.980;28.882;2023-02-03T06:17:15;34.00;;;17.77;;
71856;SDS011;63344;46.980;28.882;2023-02-03T06:22:25;18.55;;;8.68;;
71856;SDS011;63344;46.980;28.882;2023-02-03T06:24:54;10.65;;;6.07;;
71856;SDS011;63344;46.980;28.882;2023-02-03T06:27:22;9.57;;;5.20;;
71856;SDS011;63344;46.980;28.882;2023-02-03T06:29:49;8.90;;;4.57;;
71856;SDS011;63344;46.980;28.882;2023-02-03T06:32:17;10.95;;;5.53;;
71856;SDS011;63344;46.980;28.882;2023-02-03T06:34:46;10.25;;;5.80;;
71856;SDS011;63344;46.980;28.882;2023-02-03T06:37:14;11.10;;;6.30;;
71856;SDS011;63344;46.980;28.882;2023-02-03T06:39:41;10.07;;;6.30;;
71856;SDS011;63344;46.980;28.882;2023-02-03T06:42:08;8.05;;;3.80;;
71856;SDS011;63344;46.980;28.882;2023-02-03T06:44:35;11.75;;;5.95;;
71856;SDS011;63344;46.980;28.882;2023-02-03T06:47:03;8.23;;;4.53;;
71856;SDS011;63344;46.980;28.882;2023-02-03T06:49:30;12.57;;;6.25;;
71856;SDS011;63344;46.980;28.882;2023-02-03T06:51:57;8.70;;;5.75;;
71856;SDS011;63344;46.980;28.882;2023-02-03T06:54:24;17.35;;;6.90;;
71856;SDS011;63344;46.980;28.882;2023-02-03T06:56:52;6.97;;;4.63;;
71856;SDS011;63344;46.980;28.882;2023-02-03T06:59:19;10.77;;;5.78;;
71856;SDS011;63344;46.980;28.882;2023-02-03T07:01:48;9.20;;;5.15;;
71856;SDS011;63344;46.980;28.882;2023-02-03T07:04:15;8.80;;;4.72;;
71856;SDS011;63344;46.980;28.882;2023-02-03T07:06:43;9.23;;;5.72;;
71856;SDS011;63344;46.980;28.882;2023-02-03T07:09:10;9.40;;;4.97;;
71856;SDS011;63344;46.980;28.882;2023-02-03T07:11:37;9.80;;;5.30;;
71856;SDS011;63344;46.980;28.882;2023-02-03T07:14:11;9.48;;;5.45;;
71856;SDS011;63344;46.980;28.882;2023-02-03T07:16:39;13.95;;;6.90;;
71856;SDS011;63344;46.980;28.882;2023-02-03T07:19:06;11.45;;;6.40;;
71856;SDS011;63344;46.980;28.882;2023-02-03T07:21:34;9.70;;;5.00;;
71856;SDS011;63344;46.980;28.882;2023-02-03T07:24:01;8.45;;;5.00;;
71856;SDS011;63344;46.980;28.882;2023-02-03T07:26:29;12.35;;;6.22;;
71856;SDS011;63344;46.980;28.882;2023-02-03T07:28:56;8.20;;;5.03;;
71856;SDS011;63344;46.980;28.882;2023-02-03T07:31:26;12.55;;;7.53;;
71856;SDS011;63344;46.980;28.882;2023-02-03T07:33:53;11.95;;;6.65;;
71856;SDS011;63344;46.980;28.882;2023-02-03T07:36:21;13.15;;;6.72;;
71856;SDS011;63344;46.980;28.882;2023-02-03T07:38:49;7.45;;;4.35;;
71856;SDS011;63344;46.980;28.882;2023-02-03T07:41:17;9.77;;;4.60;;
71856;SDS011;63344;46.980;28.882;2023-02-03T07:43:46;7.03;;;4.47;;
71856;SDS011;63344;46.980;28.882;2023-02-03T07:46:14;9.77;;;5.32;;
71856;SDS011;63344;46.980;28.882;2023-02-03T07:48:41;7.93;;;4.28;;
71856;SDS011;63344;46.980;28.882;2023-02-03T07:51:09;5.82;;;3.58;;
71856;SDS011;63344;46.980;28.882;2023-02-03T07:53:36;5.78;;;3.47;;
71856;SDS011;63344;46.980;28.882;2023-02-03T07:56:03;7.10;;;4.85;;
71856;SDS011;63344;46.980;28.882;2023-02-03T07:58:31;8.70;;;5.13;;
71856;SDS011;63344;46.980;28.882;2023-02-03T08:00:58;7.38;;;4.75;;
71856;SDS011;63344;46.980;28.882;2023-02-03T08:03:26;6.75;;;4.28;;
71856;SDS011;63344;46.980;28.882;2023-02-03T08:05:53;6.72;;;3.75;;
71856;SDS011;63344;46.980;28.882;2023-02-03T08:08:21;8.35;;;4.93;;
71856;SDS011;63344;46.980;28.882;2023-02-03T08:10:49;7.38;;;4.07;;
71856;SDS011;63344;46.980;28.882;2023-02-03T08:13:20;8.40;;;4.53;;
71856;SDS011;63344;46.980;28.882;2023-02-03T08:15:48;6.07;;;4.10;;
71856;SDS011;63344;46.980;28.882;2023-02-03T08:18:15;6.38;;;3.92;;
71856;SDS011;63344;46.980;28.882;2023-02-03T08:20:46;7.60;;;4.18;;
71856;SDS011;63344;46.980;28.882;2023-02-03T08:23:13;7.93;;;4.18;;
71856;SDS011;63344;46.980;28.882;2023-02-03T08:25:43;7.38;;;4.22;;
71856;SDS011;63344;46.980;28.882;2023-02-03T08:30:40;8.60;;;4.05;;
71856;SDS011;63344;46.980;28.882;2023-02-03T08:33:07;6.40;;;4.18;;
71856;SDS011;63344;46.980;28.882;2023-02-03T08:35:49;4.80;;;3.13;;
71856;SDS011;63344;46.980;28.882;2023-02-03T08:38:49;7.45;;;4.28;;
71856;SDS011;63344;46.980;28.882;2023-02-03T08:41:20;7.25;;;4.85;;
71856;SDS011;63344;46.980;28.882;2023-02-03T08:43:50;13.32;;;5.53;;
71856;SDS011;63344;46.980;28.882;2023-02-03T08:46:17;4.88;;;2.88;;
71856;SDS011;63344;46.980;28.882;2023-02-03T08:48:44;7.03;;;3.45;;
71856;SDS011;63344;46.980;28.882;2023-02-03T08:51:13;5.53;;;2.97;;
71856;SDS011;63344;46.980;28.882;2023-02-03T08:53:42;5.05;;;3.10;;
71856;SDS011;63344;46.980;28.882;2023-02-03T08:56:24;7.03;;;4.18;;
71856;SDS011;63344;46.980;28.882;2023-02-03T08:58:53;7.18;;;4.05;;
71856;SDS011;63344;46.980;28.882;2023-02-03T09:01:21;4.45;;;2.88;;
71856;SDS011;63344;46.980;28.882;2023-02-03T09:04:04;4.28;;;2.47;;
71856;SDS011;63344;46.980;28.882;2023-02-03T09:06:34;5.40;;;3.50;;
71856;SDS011;63344;46.980;28.882;2023-02-03T09:09:02;5.68;;;3.30;;
71856;SDS011;63344;46.980;28.882;2023-02-03T09:11:30;4.47;;;2.30;;
71856;SDS011;63344;46.980;28.882;2023-02-03T09:13:57;5.18;;;2.78;;
71856;SDS011;63344;46.980;28.882;2023-02-03T09:16:27;6.28;;;3.38;;
71856;SDS011;63344;46.980;28.882;2023-02-03T09:18:56;5.63;;;3.33;;
71856;SDS011;63344;46.980;28.882;2023-02-03T09:21:24;4.75;;;2.75;;
71856;SDS011;63344;46.980;28.882;2023-02-03T09:24:04;3.25;;;2.25;;
71856;SDS011;63344;46.980;28.882;2023-02-03T09:26:31;7.47;;;3.20;;
71856;SDS011;63344;46.980;28.882;2023-02-03T09:28:59;4.10;;;2.50;;
71856;SDS011;63344;46.980;28.882;2023-02-03T09:31:31;3.92;;;2.58;;
71856;SDS011;63344;46.980;28.882;2023-02-03T09:34:00;3.45;;;2.03;;
71856;SDS011;63344;46.980;28.882;2023-02-03T09:36:28;2.53;;;1.52;;
71856;SDS011;63344;46.980;28.882;2023-02-03T09:38:56;4.03;;;2.50;;
71856;SDS011;63344;46.980;28.882;2023-02-03T09:46:59;4.57;;;2.60;;
71856;SDS011;63344;46.980;28.882;2023-02-03T09:49:49;4.05;;;2.10;;
71856;SDS011;63344;46.980;28.882;2023-02-03T09:52:22;2.72;;;1.95;;
71856;SDS011;63344;46.980;28.882;2023-02-03T09:54:57;2.53;;;1.52;;
71856;SDS011;63344;46.980;28.882;2023-02-03T09:57:34;2.30;;;1.30;;
71856;SDS011;63344;46.980;28.882;2023-02-03T10:00:21;4.88;;;2.75;;
71856;SDS011;63344;46.980;28.882;2023-02-03T10:14:19;4.47;;;2.25;;
71856;SDS011;63344;46.980;28.882;2023-02-03T10:17:23;3.22;;;1.88;;
71856;SDS011;63344;46.980;28.882;2023-02-03T10:22:44;4.95;;;1.67;;
71856;SDS011;63344;46.980;28.882;2023-02-03T10:27:43;4.15;;;1.60;;
71856;SDS011;63344;46.980;28.882;2023-02-03T10:30:17;1.75;;;1.20;;
71856;SDS011;63344;46.980;28.882;2023-02-03T10:33:11;3.42;;;1.35;;
71856;SDS011;63344;46.980;28.882;2023-02-03T10:35:45;3.95;;;1.38;;
71856;SDS011;63344;46.980;28.882;2023-02-03T10:41:09;4.47;;;1.45;;
71856;SDS011;63344;46.980;28.882;2023-02-03T10:43:53;5.07;;;2.33;;
71856;SDS011;63344;46.980;28.882;2023-02-03T10:46:29;4.45;;;1.95;;
71856;SDS011;63344;46.980;28.882;2023-02-03T10:49:02;3.50;;;1.70;;
71856;SDS011;63344;46.980;28.882;2023-02-03T10:51:34;2.35;;;1.20;;
71856;SDS011;63344;46.980;28.882;2023-02-03T10:57:02;4.72;;;1.63;;
71856;SDS011;63344;46.980;28.882;2023-02-03T10:59:40;4.57;;;1.85;;
71856;SDS011;63344;46.980;28.882;2023-02-03T11:02:10;8.60;;;2.88;;
71856;SDS011;63344;46.980;28.882;2023-02-03T11:05:07;2.45;;;1.67;;
71856;SDS011;63344;46.980;28.882;2023-02-03T11:07:46;4.03;;;1.92;;
71856;SDS011;63344;46.980;28.882;2023-02-03T11:13:09;4.15;;;2.08;;
71856;SDS011;63344;46.980;28.882;2023-02-03T11:15:43;6.43;;;1.95;;
71856;SDS011;63344;46.980;28.882;2023-02-03T11:21:05;5.97;;;2.08;;
71856;SDS011;63344;46.980;28.882;2023-02-03T11:24:00;3.63;;;2.05;;
71856;SDS011;63344;46.980;28.882;2023-02-03T11:26:54;4.20;;;1.75;;
71856;SDS011;63344;46.980;28.882;2023-02-03T11:29:25;5.18;;;2.70;;
71856;SDS011;63344;46.980;28.882;2023-02-03T11:31:55;5.88;;;2.70;;
71856;SDS011;63344;46.980;28.882;2023-02-03T11:34:29;4.18;;;2.72;;
71856;SDS011;63344;46.980;28.882;2023-02-03T11:39:49;5.10;;;2.65;;
71856;SDS011;63344;46.980;28.882;2023-02-03T11:42:23;6.55;;;3.67;;
71856;SDS011;63344;46.980;28.882;2023-02-03T11:44:51;3.35;;;2.33;;
71856;SDS011;63344;46.980;28.882;2023-02-03T11:56:53;4.10;;;2.40;;
71856;SDS011;63344;46.980;28.882;2023-02-03T12:13:09;2.95;;;2.00;;
71856;SDS011;63344;46.980;28.882;2023-02-03T12:18:44;3.58;;;2.13;;
71856;SDS011;63344;46.980;28.882;2023-02-03T12:27:40;7.68;;;1.65;;
71856;SDS011;63344;46.980;28.882;2023-02-03T12:30:26;3.80;;;1.77;;
71856;SDS011;63344;46.980;28.882;2023-02-03T12:33:00;5.63;;;1.20;;
71856;SDS011;63344;46.980;28.882;2023-02-03T12:35:54;2.63;;;1.23;;
71856;SDS011;63344;46.980;28.882;2023-02-03T12:38:30;4.03;;;1.90;;
71856;SDS011;63344;46.980;28.882;2023-02-03T12:41:58;4.50;;;1.98;;
71856;SDS011;63344;46.980;28.882;2023-02-03T12:44:34;2.55;;;1.75;;
71856;SDS011;63344;46.980;28.882;2023-02-03T12:47:16;2.80;;;1.70;;
71856;SDS011;63344;46.980;28.882;2023-02-03T12:49:56;3.05;;;1.80;;
71856;SDS011;63344;46.980;28.882;2023-02-03T13:00:25;3.28;;;1.60;;
71856;SDS011;63344;46.980;28.882;2023-02-03T13:03:15;3.97;;;1.73;;
71856;SDS011;63344;46.980;28.882;2023-02-03T13:15:10;6.47;;;2.95;;
71856;SDS011;63344;46.980;28.882;2023-02-03T13:22:47;3.53;;;2.38;;
71856;SDS011;63344;46.980;28.882;2023-02-03T13:41:45;4.28;;;2.00;;
71856;SDS011;63344;46.980;28.882;2023-02-03T13:44:20;4.53;;;2.78;;
71856;SDS011;63344;46.980;28.882;2023-02-03T13:46:56;3.75;;;1.42;;
71856;SDS011;63344;46.980;28.882;2023-02-03T13:49:29;3.88;;;1.63;;
71856;SDS011;63344;46.980;28.882;2023-02-03T13:52:02;3.33;;;2.20;;
71856;SDS011;63344;46.980;28.882;2023-02-03T13:54:32;2.92;;;1.88;;
71856;SDS011;63344;46.980;28.882;2023-02-03T13:57:27;3.30;;;1.95;;
71856;SDS011;63344;46.980;28.882;2023-02-03T14:00:03;8.35;;;2.15;;
71856;SDS011;63344;46.980;28.882;2023-02-03T14:02:52;3.85;;;1.85;;
71856;SDS011;63344;46.980;28.882;2023-02-03T14:05:44;4.78;;;1.95;;
71856;SDS011;63344;46.980;28.882;2023-02-03T14:22:05;4.13;;;2.25;;
71856;SDS011;63344;46.980;28.882;2023-02-03T14:24:42;3.40;;;1.85;;
71856;SDS011;63344;46.980;28.882;2023-02-03T14:27:16;3.17;;;2.03;;
71856;SDS011;63344;46.980;28.882;2023-02-03T14:30:01;8.98;;;2.10;;
71856;SDS011;63344;46.980;28.882;2023-02-03T14:32:48;3.17;;;1.95;;
71856;SDS011;63344;46.980;28.882;2023-02-03T14:35:21;6.22;;;2.63;;
71856;SDS011;63344;46.980;28.882;2023-02-03T14:37:59;6.65;;;2.35;;
71856;SDS011;63344;46.980;28.882;2023-02-03T14:55:10;4.80;;;1.67;;
71856;SDS011;63344;46.980;28.882;2023-02-03T14:58:21;4.97;;;2.92;;
71856;SDS011;63344;46.980;28.882;2023-02-03T15:01:25;6.95;;;4.25;;
71856;SDS011;63344;46.980;28.882;2023-02-03T15:06:48;6.53;;;3.15;;
71856;SDS011;63344;46.980;28.882;2023-02-03T15:09:32;8.48;;;2.80;;
71856;SDS011;63344;46.980;28.882;2023-02-03T15:12:17;8.73;;;3.20;;
71856;SDS011;63344;46.980;28.882;2023-02-03T15:14:48;11.95;;;4.05;;
71856;SDS011;63344;46.980;28.882;2023-02-03T15:17:22;10.18;;;2.63;;
71856;SDS011;63344;46.980;28.882;2023-02-03T15:19:52;8.23;;;3.70;;
71856;SDS011;63344;46.980;28.882;2023-02-03T15:22:21;13.02;;;5.13;;
71856;SDS011;63344;46.980;28.882;2023-02-03T15:24:50;7.07;;;3.88;;
71856;SDS011;63344;46.980;28.882;2023-02-03T15:27:23;10.73;;;3.10;;
71856;SDS011;63344;46.980;28.882;2023-02-03T15:29:52;8.32;;;3.78;;
71856;SDS011;63344;46.980;28.882;2023-02-03T15:34:59;10.35;;;4.68;;
71856;SDS011;63344;46.980;28.882;2023-02-03T15:37:50;6.82;;;3.33;;
71856;SDS011;63344;46.980;28.882;2023-02-03T15:40:22;8.15;;;4.22;;
71856;SDS011;63344;46.980;28.882;2023-02-03T15:43:01;6.68;;;3.72;;
71856;SDS011;63344;46.980;28.882;2023-02-03T15:51:02;7.72;;;3.63;;
71856;SDS011;63344;46.980;28.882;2023-02-03T15:59:20;6.93;;;2.53;;
71856;SDS011;63344;46.980;28.882;2023-02-03T16:01:49;9.50;;;3.67;;
71856;SDS011;63344;46.980;28.882;2023-02-03T16:04:17;9.35;;;4.05;;
71856;SDS011;63344;46.980;28.882;2023-02-03T16:06:47;9.75;;;4.68;;
71856;SDS011;63344;46.980;28.882;2023-02-03T16:09:33;6.13;;;3.65;;
71856;SDS011;63344;46.980;28.882;2023-02-03T16:14:40;10.25;;;4.40;;
71856;SDS011;63344;46.980;28.882;2023-02-03T16:20:21;7.82;;;3.47;;
71856;SDS011;63344;46.980;28.882;2023-02-03T16:23:01;7.15;;;4.05;;
71856;SDS011;63344;46.980;28.882;2023-02-03T16:25:31;8.93;;;4.50;;
71856;SDS011;63344;46.980;28.882;2023-02-03T16:28:15;10.65;;;4.68;;
71856;SDS011;63344;46.980;28.882;2023-02-03T16:31:21;13.65;;;4.95;;
71856;SDS011;63344;46.980;28.882;2023-02-03T16:34:14;11.70;;;5.28;;
71856;SDS011;63344;46.980;28.882;2023-02-03T16:39:57;12.40;;;5.03;;
71856;SDS011;63344;46.980;28.882;2023-02-03T16:42:44;11.73;;;3.95;;
71856;SDS011;63344;46.980;28.882;2023-02-03T16:45:29;11.73;;;4.45;;
71856;SDS011;63344;46.980;28.882;2023-02-03T16:48:15;17.38;;;5.20;;
71856;SDS011;63344;46.980;28.882;2023-02-03T16:51:03;18.15;;;6.65;;
71856;SDS011;63344;46.980;28.882;2023-02-03T16:53:42;12.05;;;4.78;;
71856;SDS011;63344;46.980;28.882;2023-02-03T16:56:11;10.38;;;4.70;;
71856;SDS011;63344;46.980;28.882;2023-02-03T16:58:39;6.85;;;4.00;;
71856;SDS011;63344;46.980;28.882;2023-02-03T17:01:07;9.65;;;4.95;;
71856;SDS011;63344;46.980;28.882;2023-02-03T17:03:37;6.93;;;3.63;;
71856;SDS011;63344;46.980;28.882;2023-02-03T17:06:06;8.82;;;3.75;;
71856;SDS011;63344;46.980;28.882;2023-02-03T17:08:35;10.27;;;4.82;;
71856;SDS011;63344;46.980;28.882;2023-02-03T17:11:07;10.82;;;4.53;;
71856;SDS011;63344;46.980;28.882;2023-02-03T17:13:41;8.38;;;4.78;;
71856;SDS011;63344;46.980;28.882;2023-02-03T17:16:13;12.32;;;4.85;;
71856;SDS011;63344;46.980;28.882;2023-02-03T17:18:43;13.15;;;5.18;;
71856;SDS011;63344;46.980;28.882;2023-02-03T17:21:13;5.43;;;3.05;;
71856;SDS011;63344;46.980;28.882;2023-02-03T17:23:43;10.20;;;5.35;;
71856;SDS011;63344;46.980;28.882;2023-02-03T17:26:12;10.32;;;5.82;;
71856;SDS011;63344;46.980;28.882;2023-02-03T17:28:45;9.88;;;4.57;;
71856;SDS011;63344;46.980;28.882;2023-02-03T17:31:19;9.68;;;5.35;;
71856;SDS011;63344;46.980;28.882;2023-02-03T17:33:50;14.10;;;6.35;;
71856;SDS011;63344;46.980;28.882;2023-02-03T17:36:18;12.75;;;5.93;;
71856;SDS011;63344;46.980;28.882;2023-02-03T17:38:48;12.52;;;5.45;;
71856;SDS011;63344;46.980;28.882;2023-02-03T17:41:34;6.25;;;4.03;;
71856;SDS011;63344;46.980;28.882;2023-02-03T17:44:19;11.52;;;5.53;;
71856;SDS011;63344;46.980;28.882;2023-02-03T17:50:02;10.27;;;5.47;;
71856;SDS011;63344;46.980;28.882;2023-02-03T17:52:49;7.50;;;4.70;;
71856;SDS011;63344;46.980;28.882;2023-02-03T17:55:30;16.13;;;6.30;;
71856;SDS011;63344;46.980;28.882;2023-02-03T17:57:59;11.43;;;5.68;;
71856;SDS011;63344;46.980;28.882;2023-02-03T18:00:26;12.95;;;5.60;;
71856;SDS011;63344;46.980;28.882;2023-02-03T18:02:56;15.90;;;6.55;;
71856;SDS011;63344;46.980;28.882;2023-02-03T18:05:24;14.07;;;6.38;;
71856;SDS011;63344;46.980;28.882;2023-02-03T18:07:55;15.30;;;6.50;;
71856;SDS011;63344;46.980;28.882;2023-02-03T18:10:22;14.68;;;6.60;;
71856;SDS011;63344;46.980;28.882;2023-02-03T18:12:49;17.15;;;7.57;;
71856;SDS011;63344;46.980;28.882;2023-02-03T18:15:16;23.05;;;8.48;;